sensor_id;sensor_type;location;lat;lon;timestamp;pressure;altitude;pressure_sealevel;temperature;humidity
38054;BME280;23859;50.672;7.164;2023-03-12T00:00:50;95888.50;;;1.96;89.30
38054;BME280;23859;50.672;7.164;2023-03-12T00:03:16;95884.50;;;1.94;88.82
38054;BME280;23859;50.672;7.164;2023-03-12T00:05:43;95883.47;;;2.01;88.19
38054;BME280;23859;50.672;7.164;2023-03-12T00:08:10;95881.06;;;2.06;89.44
38054;BME280;23859;50.672;7.164;2023-03-12T00:10:38;95874.03;;;2.06;87.93
38054;BME280;23859;50.672;7.164;2023-03-12T00:13:05;95881.91;;;2.00;87.96
38054;BME280;23859;50.672;7.164;2023-03-12T00:15:34;95878.06;;;2.02;88.55
38054;BME280;23859;50.672;7.164;2023-03-12T00:18:00;95877.06;;;2.10;88.34
38054;BME280;23859;50.672;7.164;2023-03-12T00:20:26;95884.50;;;2.00;89.44
38054;BME280;23859;50.672;7.164;2023-03-12T00:22:52;95895.19;;;2.11;89.24
38054;BME280;23859;50.672;7.164;2023-03-12T00:25:18;95899.41;;;2.19;88.41
38054;BME280;23859;50.672;7.164;2023-03-12T00:27:45;95900.63;;;2.10;89.98
38054;BME280;23859;50.672;7.164;2023-03-12T00:30:12;95901.81;;;2.14;88.97
38054;BME280;23859;50.672;7.164;2023-03-12T00:32:38;95900.00;;;2.01;88.91
38054;BME280;23859;50.672;7.164;2023-03-12T00:35:05;95899.81;;;2.16;88.03
38054;BME280;23859;50.672;7.164;2023-03-12T00:37:32;95893.34;;;2.12;88.17
38054;BME280;23859;50.672;7.164;2023-03-12T00:39:59;95897.78;;;2.11;88.53
38054;BME280;23859;50.672;7.164;2023-03-12T00:42:27;95890.34;;;2.15;87.54
38054;BME280;23859;50.672;7.164;2023-03-12T00:44:53;95886.53;;;2.17;87.38
38054;BME280;23859;50.672;7.164;2023-03-12T00:47:19;95898.19;;;2.21;86.38
38054;BME280;23859;50.672;7.164;2023-03-12T00:49:45;95778.69;;;1.57;86.00
38054;BME280;23859;50.672;7.164;2023-03-12T00:52:12;95889.75;;;2.26;86.44
38054;BME280;23859;50.672;7.164;2023-03-12T00:54:38;95889.31;;;2.29;86.02
38054;BME280;23859;50.672;7.164;2023-03-12T00:57:04;95882.88;;;2.31;84.97
38054;BME280;23859;50.672;7.164;2023-03-12T00:59:30;95878.44;;;2.38;84.53
38054;BME280;23859;50.672;7.164;2023-03-12T01:01:56;95872.78;;;2.41;83.43
38054;BME280;23859;50.672;7.164;2023-03-12T01:04:23;95862.94;;;2.37;83.77
38054;BME280;23859;50.672;7.164;2023-03-12T01:06:49;95875.81;;;2.51;80.11
38054;BME280;23859;50.672;7.164;2023-03-12T01:09:15;95866.53;;;2.62;79.77
38054;BME280;23859;50.672;7.164;2023-03-12T01:11:41;95866.94;;;2.59;77.84
38054;BME280;23859;50.672;7.164;2023-03-12T01:14:08;95863.69;;;2.63;77.78
38054;BME280;23859;50.672;7.164;2023-03-12T01:16:34;95864.06;;;2.73;75.79
38054;BME280;23859;50.672;7.164;2023-03-12T01:19:01;95870.28;;;2.85;75.00
38054;BME280;23859;50.672;7.164;2023-03-12T01:21:29;95868.28;;;2.87;75.31
38054;BME280;23859;50.672;7.164;2023-03-12T01:23:56;95867.84;;;2.96;73.62
38054;BME280;23859;50.672;7.164;2023-03-12T01:26:23;95867.25;;;2.94;73.60
38054;BME280;23859;50.672;7.164;2023-03-12T01:28:49;95865.84;;;2.92;74.26
38054;BME280;23859;50.672;7.164;2023-03-12T01:31:17;95865.22;;;2.96;73.60
38054;BME280;23859;50.672;7.164;2023-03-12T01:33:44;95859.81;;;2.91;74.00
38054;BME280;23859;50.672;7.164;2023-03-12T01:36:17;95852.72;;;2.92;73.21
38054;BME280;23859;50.672;7.164;2023-03-12T01:38:43;95859.81;;;2.91;74.50
38054;BME280;23859;50.672;7.164;2023-03-12T01:41:09;95854.53;;;2.98;73.79
38054;BME280;23859;50.672;7.164;2023-03-12T01:43:37;95852.69;;;2.98;73.45
38054;BME280;23859;50.672;7.164;2023-03-12T01:46:18;95855.28;;;3.11;72.92
38054;BME280;23859;50.672;7.164;2023-03-12T01:54:06;95842.97;;;3.12;72.58
38054;BME280;23859;50.672;7.164;2023-03-12T01:56:35;95834.34;;;3.05;73.57
38054;BME280;23859;50.672;7.164;2023-03-12T01:59:07;95827.50;;;2.97;73.91
38054;BME280;23859;50.672;7.164;2023-03-12T02:01:34;95821.91;;;2.94;73.60
38054;BME280;23859;50.672;7.164;2023-03-12T02:04:01;95823.13;;;2.91;74.97
38054;BME280;23859;50.672;7.164;2023-03-12T02:06:48;95801.94;;;2.93;72.91
38054;BME280;23859;50.672;7.164;2023-03-12T02:09:16;95814.63;;;2.96;73.94
38054;BME280;23859;50.672;7.164;2023-03-12T02:11:45;95812.00;;;2.96;74.15
38054;BME280;23859;50.672;7.164;2023-03-12T02:14:11;95813.47;;;2.85;74.71
38054;BME280;23859;50.672;7.164;2023-03-12T02:16:37;95817.03;;;2.97;74.06
38054;BME280;23859;50.672;7.164;2023-03-12T02:19:04;95812.22;;;2.94;74.01
38054;BME280;23859;50.672;7.164;2023-03-12T02:21:34;95799.25;;;3.06;73.48
38054;BME280;23859;50.672;7.164;2023-03-12T02:26:33;95789.41;;;3.01;73.72
38054;BME280;23859;50.672;7.164;2023-03-12T02:29:01;95799.81;;;3.14;73.55
38054;BME280;23859;50.672;7.164;2023-03-12T02:31:38;95785.34;;;3.05;74.52
38054;BME280;23859;50.672;7.164;2023-03-12T02:34:05;95778.25;;;3.12;73.82
38054;BME280;23859;50.672;7.164;2023-03-12T02:36:31;95775.81;;;3.11;73.86
38054;BME280;23859;50.672;7.164;2023-03-12T02:38:57;95781.63;;;3.19;73.59
38054;BME280;23859;50.672;7.164;2023-03-12T02:41:33;95776.09;;;3.33;72.49
38054;BME280;23859;50.672;7.164;2023-03-12T02:46:37;95761.97;;;3.34;71.36
38054;BME280;23859;50.672;7.164;2023-03-12T02:49:04;95764.38;;;3.36;71.33
38054;BME280;23859;50.672;7.164;2023-03-12T02:51:31;95762.94;;;3.40;70.84
38054;BME280;23859;50.672;7.164;2023-03-12T02:53:57;95763.06;;;3.51;70.59
38054;BME280;23859;50.672;7.164;2023-03-12T02:56:25;95758.72;;;3.39;71.32
38054;BME280;23859;50.672;7.164;2023-03-12T02:58:51;95749.81;;;3.40;70.72
38054;BME280;23859;50.672;7.164;2023-03-12T03:01:18;95774.81;;;3.42;70.96
38054;BME280;23859;50.672;7.164;2023-03-12T03:03:45;95759.53;;;3.39;71.04
38054;BME280;23859;50.672;7.164;2023-03-12T03:06:12;95753.09;;;3.35;71.36
38054;BME280;23859;50.672;7.164;2023-03-12T03:08:38;95756.59;;;3.54;70.80
38054;BME280;23859;50.672;7.164;2023-03-12T03:11:05;95752.19;;;3.48;71.42
38054;BME280;23859;50.672;7.164;2023-03-12T03:13:32;95756.59;;;3.54;70.72
38054;BME280;23859;50.672;7.164;2023-03-12T03:15:58;95761.16;;;3.65;69.60
38054;BME280;23859;50.672;7.164;2023-03-12T03:18:27;95753.75;;;3.55;70.63
38054;BME280;23859;50.672;7.164;2023-03-12T03:21:07;95760.16;;;3.66;70.56
38054;BME280;23859;50.672;7.164;2023-03-12T03:23:35;95760.16;;;3.59;70.20
38054;BME280;23859;50.672;7.164;2023-03-12T03:26:02;95765.59;;;3.64;70.48
38054;BME280;23859;50.672;7.164;2023-03-12T03:28:29;95765.22;;;3.61;69.96
38054;BME280;23859;50.672;7.164;2023-03-12T03:30:57;95716.34;;;3.42;69.25
38054;BME280;23859;50.672;7.164;2023-03-12T03:33:29;95772.56;;;3.77;68.70
38054;BME280;23859;50.672;7.164;2023-03-12T03:35:57;95766.66;;;3.81;68.81
38054;BME280;23859;50.672;7.164;2023-03-12T03:38:25;95756.91;;;3.64;69.95
38054;BME280;23859;50.672;7.164;2023-03-12T03:40:51;95585.19;;;2.45;69.98
38054;BME280;23859;50.672;7.164;2023-03-12T03:43:17;95751.13;;;3.55;70.63
38054;BME280;23859;50.672;7.164;2023-03-12T03:45:44;95759.31;;;3.65;69.87
38054;BME280;23859;50.672;7.164;2023-03-12T03:48:13;95752.69;;;3.63;70.21
38054;BME280;23859;50.672;7.164;2023-03-12T03:50:40;95755.59;;;3.55;70.79
38054;BME280;23859;50.672;7.164;2023-03-12T03:53:08;95748.88;;;3.59;70.23
38054;BME280;23859;50.672;7.164;2023-03-12T03:55:37;95747.44;;;3.63;70.45
38054;BME280;23859;50.672;7.164;2023-03-12T03:58:04;95748.44;;;3.62;69.98
38054;BME280;23859;50.672;7.164;2023-03-12T04:00:30;95749.66;;;3.66;70.45
38054;BME280;23859;50.672;7.164;2023-03-12T04:02:56;95662.31;;;3.10;70.76
38054;BME280;23859;50.672;7.164;2023-03-12T04:05:22;95739.56;;;3.63;70.73
38054;BME280;23859;50.672;7.164;2023-03-12T04:07:51;95732.53;;;3.57;71.15
38054;BME280;23859;50.672;7.164;2023-03-12T04:10:20;95730.78;;;3.51;71.78
38054;BME280;23859;50.672;7.164;2023-03-12T04:12:46;95730.94;;;3.56;72.45
38054;BME280;23859;50.672;7.164;2023-03-12T04:15:13;95740.41;;;3.57;72.10
38054;BME280;23859;50.672;7.164;2023-03-12T04:17:39;95729.75;;;3.76;71.37
38054;BME280;23859;50.672;7.164;2023-03-12T04:20:05;95740.00;;;3.60;72.20
38054;BME280;23859;50.672;7.164;2023-03-12T04:22:36;95736.78;;;3.58;72.68
38054;BME280;23859;50.672;7.164;2023-03-12T04:25:02;95730.78;;;3.51;73.11
38054;BME280;23859;50.672;7.164;2023-03-12T04:27:28;95733.16;;;3.59;72.65
38054;BME280;23859;50.672;7.164;2023-03-12T04:29:54;95735.50;;;3.67;72.73
38054;BME280;23859;50.672;7.164;2023-03-12T04:32:21;95735.84;;;3.77;72.14
38054;BME280;23859;50.672;7.164;2023-03-12T04:34:47;95728.81;;;3.71;72.38
38054;BME280;23859;50.672;7.164;2023-03-12T04:37:13;95733.75;;;3.61;73.23
38054;BME280;23859;50.672;7.164;2023-03-12T04:39:42;95727.53;;;3.55;73.50
38054;BME280;23859;50.672;7.164;2023-03-12T04:42:09;95726.81;;;3.66;73.91
38054;BME280;23859;50.672;7.164;2023-03-12T04:44:35;95725.13;;;3.54;76.07
38054;BME280;23859;50.672;7.164;2023-03-12T04:47:01;95727.97;;;3.52;76.36
38054;BME280;23859;50.672;7.164;2023-03-12T04:49:27;95721.28;;;3.56;76.56
38054;BME280;23859;50.672;7.164;2023-03-12T04:51:54;95715.75;;;3.64;76.05
38054;BME280;23859;50.672;7.164;2023-03-12T04:54:20;95721.59;;;3.66;75.87
38054;BME280;23859;50.672;7.164;2023-03-12T04:56:48;95718.25;;;3.53;77.17
38054;BME280;23859;50.672;7.164;2023-03-12T04:59:14;95717.66;;;3.51;77.62
38054;BME280;23859;50.672;7.164;2023-03-12T05:01:41;95713.03;;;3.53;78.13
38054;BME280;23859;50.672;7.164;2023-03-12T05:04:07;95705.31;;;3.58;77.94
38054;BME280;23859;50.672;7.164;2023-03-12T05:06:33;95702.97;;;3.50;79.34
38054;BME280;23859;50.672;7.164;2023-03-12T05:09:00;95701.38;;;3.42;80.48
38054;BME280;23859;50.672;7.164;2023-03-12T05:11:26;95706.31;;;3.57;80.55
38054;BME280;23859;50.672;7.164;2023-03-12T05:13:52;95706.13;;;3.58;81.50
38054;BME280;23859;50.672;7.164;2023-03-12T05:16:18;95707.78;;;3.53;83.34
38054;BME280;23859;50.672;7.164;2023-03-12T05:18:45;95698.66;;;3.31;85.10
38054;BME280;23859;50.672;7.164;2023-03-12T05:21:15;95705.59;;;3.19;87.30
38054;BME280;23859;50.672;7.164;2023-03-12T05:23:41;95613.94;;;2.58;88.54
38054;BME280;23859;50.672;7.164;2023-03-12T05:28:41;95688.03;;;2.95;91.85
38054;BME280;23859;50.672;7.164;2023-03-12T05:31:09;95685.63;;;2.94;93.19
38054;BME280;23859;50.672;7.164;2023-03-12T05:33:35;95688.03;;;2.95;94.38
38054;BME280;23859;50.672;7.164;2023-03-12T05:36:02;95679.25;;;2.83;96.06
38054;BME280;23859;50.672;7.164;2023-03-12T05:38:28;95674.50;;;2.67;97.40
38054;BME280;23859;50.672;7.164;2023-03-12T05:40:56;95675.91;;;2.70;98.19
38054;BME280;23859;50.672;7.164;2023-03-12T05:43:23;95677.50;;;2.71;99.29
38054;BME280;23859;50.672;7.164;2023-03-12T05:45:49;95675.13;;;2.63;99.69
38054;BME280;23859;50.672;7.164;2023-03-12T05:48:15;95675.34;;;2.62;100.00
38054;BME280;23859;50.672;7.164;2023-03-12T05:50:42;95665.13;;;2.54;100.00
38054;BME280;23859;50.672;7.164;2023-03-12T05:53:09;95660.06;;;2.59;100.00
38054;BME280;23859;50.672;7.164;2023-03-12T05:55:36;95663.72;;;2.51;100.00
38054;BME280;23859;50.672;7.164;2023-03-12T05:58:04;95658.66;;;2.56;100.00
38054;BME280;23859;50.672;7.164;2023-03-12T06:00:31;95653.44;;;2.56;100.00
38054;BME280;23859;50.672;7.164;2023-03-12T06:02:57;95667.81;;;2.71;100.00
38054;BME280;23859;50.672;7.164;2023-03-12T06:05:23;95665.25;;;2.65;100.00
38054;BME280;23859;50.672;7.164;2023-03-12T06:07:49;95659.78;;;2.66;100.00
38054;BME280;23859;50.672;7.164;2023-03-12T06:10:15;95663.41;;;2.65;100.00
38054;BME280;23859;50.672;7.164;2023-03-12T06:12:42;95676.91;;;2.69;99.62
38054;BME280;23859;50.672;7.164;2023-03-12T06:15:08;95655.78;;;2.64;100.00
38054;BME280;23859;50.672;7.164;2023-03-12T06:17:34;95648.25;;;2.80;99.43
38054;BME280;23859;50.672;7.164;2023-03-12T06:20:00;95643.75;;;2.87;99.21
38054;BME280;23859;50.672;7.164;2023-03-12T06:22:27;95646.56;;;2.86;97.34
38054;BME280;23859;50.672;7.164;2023-03-12T06:24:54;95644.06;;;2.97;96.72
38054;BME280;23859;50.672;7.164;2023-03-12T06:27:20;95645.09;;;2.96;95.99
38054;BME280;23859;50.672;7.164;2023-03-12T06:29:46;95657.38;;;3.02;96.38
38054;BME280;23859;50.672;7.164;2023-03-12T06:32:13;95647.66;;;3.03;95.12
38054;BME280;23859;50.672;7.164;2023-03-12T06:34:39;95640.19;;;3.06;95.88
38054;BME280;23859;50.672;7.164;2023-03-12T06:37:05;95648.63;;;3.08;95.00
38054;BME280;23859;50.672;7.164;2023-03-12T06:39:31;95654.00;;;3.20;94.65
38054;BME280;23859;50.672;7.164;2023-03-12T06:41:57;95667.59;;;3.34;93.26
38054;BME280;23859;50.672;7.164;2023-03-12T06:44:23;95669.06;;;3.24;92.82
38054;BME280;23859;50.672;7.164;2023-03-12T06:46:50;95659.94;;;3.33;92.99
38054;BME280;23859;50.672;7.164;2023-03-12T06:49:17;95667.84;;;3.27;93.30
38054;BME280;23859;50.672;7.164;2023-03-12T06:51:43;95673.31;;;3.25;93.90
38054;BME280;23859;50.672;7.164;2023-03-12T06:54:09;95681.38;;;3.24;93.58
38054;BME280;23859;50.672;7.164;2023-03-12T06:56:35;95675.22;;;3.36;94.19
38054;BME280;23859;50.672;7.164;2023-03-12T06:59:01;95678.69;;;3.30;94.36
38054;BME280;23859;50.672;7.164;2023-03-12T07:01:27;95680.47;;;3.36;94.19
38054;BME280;23859;50.672;7.164;2023-03-12T07:03:53;95693.19;;;3.57;94.16
38054;BME280;23859;50.672;7.164;2023-03-12T07:06:21;95692.78;;;3.60;93.50
38054;BME280;23859;50.672;7.164;2023-03-12T07:08:47;95683.72;;;3.56;94.06
38054;BME280;23859;50.672;7.164;2023-03-12T07:11:14;95686.72;;;3.59;93.66
38054;BME280;23859;50.672;7.164;2023-03-12T07:13:40;95694.97;;;3.63;93.85
38054;BME280;23859;50.672;7.164;2023-03-12T07:16:07;95688.72;;;3.64;94.12
38054;BME280;23859;50.672;7.164;2023-03-12T07:18:33;95689.56;;;3.58;94.35
38054;BME280;23859;50.672;7.164;2023-03-12T07:20:59;95697.50;;;3.51;95.72
38054;BME280;23859;50.672;7.164;2023-03-12T07:23:25;95706.28;;;3.39;96.08
38054;BME280;23859;50.672;7.164;2023-03-12T07:25:52;95702.63;;;3.40;96.69
38054;BME280;23859;50.672;7.164;2023-03-12T07:28:19;95701.56;;;3.47;96.48
38054;BME280;23859;50.672;7.164;2023-03-12T07:30:46;95691.03;;;3.54;96.41
38054;BME280;23859;50.672;7.164;2023-03-12T07:33:17;95607.22;;;2.92;96.56
38054;BME280;23859;50.672;7.164;2023-03-12T07:35:46;95694.50;;;3.48;97.44
38054;BME280;23859;50.672;7.164;2023-03-12T07:38:12;95698.19;;;3.65;96.54
38054;BME280;23859;50.672;7.164;2023-03-12T07:40:38;95704.06;;;3.60;96.51
38054;BME280;23859;50.672;7.164;2023-03-12T07:43:05;95698.75;;;3.67;96.55
38054;BME280;23859;50.672;7.164;2023-03-12T07:45:36;95707.16;;;3.75;96.62
38054;BME280;23859;50.672;7.164;2023-03-12T07:48:03;95712.41;;;3.75;95.41
38054;BME280;23859;50.672;7.164;2023-03-12T07:50:29;95690.47;;;3.70;95.46
38054;BME280;23859;50.672;7.164;2023-03-12T07:52:55;95686.69;;;3.66;96.75
38054;BME280;23859;50.672;7.164;2023-03-12T07:55:21;95696.41;;;3.83;96.39
38054;BME280;23859;50.672;7.164;2023-03-12T07:57:48;95696.34;;;4.07;95.41
38054;BME280;23859;50.672;7.164;2023-03-12T08:00:14;95698.25;;;4.00;95.62
38054;BME280;23859;50.672;7.164;2023-03-12T08:02:41;95706.59;;;3.91;96.32
38054;BME280;23859;50.672;7.164;2023-03-12T08:05:08;95704.94;;;3.96;96.24
38054;BME280;23859;50.672;7.164;2023-03-12T08:07:34;95696.00;;;4.04;96.00
38054;BME280;23859;50.672;7.164;2023-03-12T08:10:05;95705.84;;;4.08;96.50
38054;BME280;23859;50.672;7.164;2023-03-12T08:12:32;95710.72;;;4.05;96.25
38054;BME280;23859;50.672;7.164;2023-03-12T08:14:59;95701.25;;;4.04;96.79
38054;BME280;23859;50.672;7.164;2023-03-12T08:17:25;95701.91;;;4.17;96.13
38054;BME280;23859;50.672;7.164;2023-03-12T08:19:51;95701.81;;;4.24;95.65
38054;BME280;23859;50.672;7.164;2023-03-12T08:22:17;95696.56;;;4.24;95.48
38054;BME280;23859;50.672;7.164;2023-03-12T08:24:43;95704.81;;;4.27;95.55
38054;BME280;23859;50.672;7.164;2023-03-12T08:27:09;95707.91;;;4.24;97.23
38054;BME280;23859;50.672;7.164;2023-03-12T08:29:37;95712.09;;;4.25;95.75
38054;BME280;23859;50.672;7.164;2023-03-12T08:32:04;95709.13;;;4.40;95.57
38054;BME280;23859;50.672;7.164;2023-03-12T08:34:31;95701.31;;;4.15;97.19
38054;BME280;23859;50.672;7.164;2023-03-12T08:36:57;95706.13;;;4.18;99.01
38054;BME280;23859;50.672;7.164;2023-03-12T08:39:23;95704.59;;;4.29;97.45
38054;BME280;23859;50.672;7.164;2023-03-12T08:41:49;95701.38;;;4.45;97.40
38054;BME280;23859;50.672;7.164;2023-03-12T08:44:20;95715.97;;;4.59;97.56
38054;BME280;23859;50.672;7.164;2023-03-12T08:46:46;95713.25;;;4.47;99.19
38054;BME280;23859;50.672;7.164;2023-03-12T08:49:13;95710.31;;;4.44;98.71
38054;BME280;23859;50.672;7.164;2023-03-12T08:51:39;95709.06;;;4.46;99.65
38054;BME280;23859;50.672;7.164;2023-03-12T08:54:05;95691.97;;;4.55;99.08
38054;BME280;23859;50.672;7.164;2023-03-12T08:56:31;95712.34;;;4.89;99.30
38054;BME280;23859;50.672;7.164;2023-03-12T08:58:57;95713.38;;;4.88;100.00
38054;BME280;23859;50.672;7.164;2023-03-12T09:01:24;95712.88;;;4.79;100.00
38054;BME280;23859;50.672;7.164;2023-03-12T09:03:50;95708.28;;;5.04;100.00
38054;BME280;23859;50.672;7.164;2023-03-12T09:06:18;95704.13;;;5.26;100.00
38054;BME280;23859;50.672;7.164;2023-03-12T09:08:45;95702.16;;;5.22;100.00
38054;BME280;23859;50.672;7.164;2023-03-12T09:11:13;95716.31;;;5.50;100.00
38054;BME280;23859;50.672;7.164;2023-03-12T09:13:40;95720.50;;;5.80;99.01
38054;BME280;23859;50.672;7.164;2023-03-12T09:16:07;95725.59;;;5.75;100.00
38054;BME280;23859;50.672;7.164;2023-03-12T09:18:34;95721.97;;;5.76;100.00
38054;BME280;23859;50.672;7.164;2023-03-12T09:21:01;95733.50;;;5.75;100.00
38054;BME280;23859;50.672;7.164;2023-03-12T09:23:28;95714.69;;;5.49;100.00
38054;BME280;23859;50.672;7.164;2023-03-12T09:25:55;95719.25;;;5.30;100.00
38054;BME280;23859;50.672;7.164;2023-03-12T09:28:22;95719.41;;;5.18;100.00
38054;BME280;23859;50.672;7.164;2023-03-12T09:30:48;95714.22;;;5.29;100.00
38054;BME280;23859;50.672;7.164;2023-03-12T09:33:14;95718.03;;;5.15;100.00
38054;BME280;23859;50.672;7.164;2023-03-12T09:35:43;95712.28;;;5.07;100.00
38054;BME280;23859;50.672;7.164;2023-03-12T09:38:13;95715.50;;;5.09;100.00
38054;BME280;23859;50.672;7.164;2023-03-12T09:40:44;95718.44;;;5.01;100.00
38054;BME280;23859;50.672;7.164;2023-03-12T09:45:45;95721.03;;;5.19;100.00
38054;BME280;23859;50.672;7.164;2023-03-12T09:48:33;95717.03;;;5.27;100.00
38054;BME280;23859;50.672;7.164;2023-03-12T09:51:05;95722.34;;;5.39;100.00
38054;BME280;23859;50.672;7.164;2023-03-12T09:53:53;95720.28;;;5.41;100.00
38054;BME280;23859;50.672;7.164;2023-03-12T09:56:21;95723.84;;;5.46;100.00
38054;BME280;23859;50.672;7.164;2023-03-12T09:58:48;95726.91;;;5.43;100.00
38054;BME280;23859;50.672;7.164;2023-03-12T10:01:41;95728.91;;;5.59;100.00
38054;BME280;23859;50.672;7.164;2023-03-12T10:13:07;95750.63;;;6.30;100.00
38054;BME280;23859;50.672;7.164;2023-03-12T10:21:28;95739.38;;;6.46;100.00
38054;BME280;23859;50.672;7.164;2023-03-12T10:24:02;95753.91;;;6.48;100.00
38054;BME280;23859;50.672;7.164;2023-03-12T10:26:59;95755.53;;;6.49;100.00
38054;BME280;23859;50.672;7.164;2023-03-12T10:29:40;95747.66;;;6.38;100.00
38054;BME280;23859;50.672;7.164;2023-03-12T10:32:37;95750.63;;;6.18;100.00
38054;BME280;23859;50.672;7.164;2023-03-12T10:35:22;95755.31;;;6.05;100.00
38054;BME280;23859;50.672;7.164;2023-03-12T10:37:56;95761.97;;;5.96;100.00
38054;BME280;23859;50.672;7.164;2023-03-12T10:40:31;95760.47;;;6.00;100.00
38054;BME280;23859;50.672;7.164;2023-03-12T10:42:59;95759.22;;;6.02;100.00
38054;BME280;23859;50.672;7.164;2023-03-12T10:48:17;95760.50;;;6.23;100.00
38054;BME280;23859;50.672;7.164;2023-03-12T10:51:06;95767.13;;;6.37;100.00
38054;BME280;23859;50.672;7.164;2023-03-12T10:53:52;95778.34;;;6.44;100.00
38054;BME280;23859;50.672;7.164;2023-03-12T10:56:19;95773.50;;;6.63;100.00
38054;BME280;23859;50.672;7.164;2023-03-12T10:58:48;95767.75;;;6.66;100.00
38054;BME280;23859;50.672;7.164;2023-03-12T11:01:21;95774.50;;;6.85;100.00
38054;BME280;23859;50.672;7.164;2023-03-12T11:03:48;95776.03;;;7.09;100.00
38054;BME280;23859;50.672;7.164;2023-03-12T11:06:28;95781.22;;;7.32;100.00
38054;BME280;23859;50.672;7.164;2023-03-12T11:09:16;95805.84;;;7.49;100.00
38054;BME280;23859;50.672;7.164;2023-03-12T11:11:44;95782.84;;;7.33;100.00
38054;BME280;23859;50.672;7.164;2023-03-12T11:14:16;95785.00;;;7.36;100.00
38054;BME280;23859;50.672;7.164;2023-03-12T11:16:43;95794.63;;;7.42;100.00
38054;BME280;23859;50.672;7.164;2023-03-12T11:19:13;95796.81;;;7.45;100.00
38054;BME280;23859;50.672;7.164;2023-03-12T11:21:53;95791.44;;;7.40;100.00
38054;BME280;23859;50.672;7.164;2023-03-12T11:24:19;95800.16;;;7.85;100.00
38054;BME280;23859;50.672;7.164;2023-03-12T11:26:55;95795.94;;;7.84;100.00
38054;BME280;23859;50.672;7.164;2023-03-12T11:32:33;95792.16;;;7.80;100.00
38054;BME280;23859;50.672;7.164;2023-03-12T11:35:00;95792.81;;;7.87;99.26
38054;BME280;23859;50.672;7.164;2023-03-12T11:40:03;95790.13;;;8.14;99.84
38054;BME280;23859;50.672;7.164;2023-03-12T11:42:50;95784.75;;;8.26;99.87
38054;BME280;23859;50.672;7.164;2023-03-12T11:56:39;95829.50;;;10.82;99.01
38054;BME280;23859;50.672;7.164;2023-03-12T12:04:39;95841.41;;;11.77;93.66
38054;BME280;23859;50.672;7.164;2023-03-12T12:09:58;95833.19;;;11.93;92.13
38054;BME280;23859;50.672;7.164;2023-03-12T12:12:39;95840.44;;;12.12;90.58
38054;BME280;23859;50.672;7.164;2023-03-12T12:24:16;95852.97;;;13.06;82.99
38054;BME280;23859;50.672;7.164;2023-03-12T12:38:26;95829.56;;;12.93;85.87
38054;BME280;23859;50.672;7.164;2023-03-12T12:43:37;95837.22;;;13.25;84.59
38054;BME280;23859;50.672;7.164;2023-03-12T12:46:42;95848.06;;;13.58;83.47
38054;BME280;23859;50.672;7.164;2023-03-12T12:49:30;95849.78;;;13.92;81.59
38054;BME280;23859;50.672;7.164;2023-03-12T12:52:04;95862.66;;;15.00;75.23
38054;BME280;23859;50.672;7.164;2023-03-12T12:57:35;95911.97;;;18.16;63.25
38054;BME280;23859;50.672;7.164;2023-03-12T13:02:50;95894.94;;;17.94;61.59
38054;BME280;23859;50.672;7.164;2023-03-12T13:05:27;95882.56;;;16.89;65.72
38054;BME280;23859;50.672;7.164;2023-03-12T13:07:54;95893.13;;;16.99;65.79
38054;BME280;23859;50.672;7.164;2023-03-12T13:12:59;95881.25;;;16.13;67.03
38054;BME280;23859;50.672;7.164;2023-03-12T13:18:22;95865.78;;;16.05;69.24
38054;BME280;23859;50.672;7.164;2023-03-12T13:23:28;95863.69;;;15.37;71.62
38054;BME280;23859;50.672;7.164;2023-03-12T13:33:57;95845.84;;;14.66;74.90
38054;BME280;23859;50.672;7.164;2023-03-12T13:36:25;95838.97;;;14.55;74.46
38054;BME280;23859;50.672;7.164;2023-03-12T13:38:59;95841.50;;;14.37;75.17
38054;BME280;23859;50.672;7.164;2023-03-12T13:49:50;95830.47;;;14.15;75.79
38054;BME280;23859;50.672;7.164;2023-03-12T13:57:40;95834.72;;;14.16;76.37
38054;BME280;23859;50.672;7.164;2023-03-12T14:00:23;95825.41;;;14.03;76.38
38054;BME280;23859;50.672;7.164;2023-03-12T14:02:58;95821.00;;;13.79;76.82
38054;BME280;23859;50.672;7.164;2023-03-12T14:05:26;95829.00;;;13.79;77.51
38054;BME280;23859;50.672;7.164;2023-03-12T14:08:07;95823.16;;;13.72;77.81
38054;BME280;23859;50.672;7.164;2023-03-12T14:10:56;95821.59;;;13.71;77.78
38054;BME280;23859;50.672;7.164;2023-03-12T14:18:43;95812.69;;;13.32;77.99
38054;BME280;23859;50.672;7.164;2023-03-12T14:21:13;95811.63;;;13.29;77.44
38054;BME280;23859;50.672;7.164;2023-03-12T14:23:48;95811.13;;;13.17;79.11
38054;BME280;23859;50.672;7.164;2023-03-12T14:26:20;95809.53;;;13.11;80.06
38054;BME280;23859;50.672;7.164;2023-03-12T14:29:04;95822.34;;;12.99;81.76
38054;BME280;23859;50.672;7.164;2023-03-12T14:31:33;95817.03;;;12.79;84.46
38054;BME280;23859;50.672;7.164;2023-03-12T14:34:07;95805.81;;;12.82;83.87
38054;BME280;23859;50.672;7.164;2023-03-12T14:39:26;95798.94;;;12.91;81.60
38054;BME280;23859;50.672;7.164;2023-03-12T14:42:37;95794.63;;;13.05;81.19
38054;BME280;23859;50.672;7.164;2023-03-12T14:45:03;95791.94;;;13.10;79.64
38054;BME280;23859;50.672;7.164;2023-03-12T14:47:47;95800.44;;;13.22;80.31
38054;BME280;23859;50.672;7.164;2023-03-12T14:52:46;95799.84;;;13.44;77.89
38054;BME280;23859;50.672;7.164;2023-03-12T14:55:16;95795.56;;;13.48;78.22
38054;BME280;23859;50.672;7.164;2023-03-12T14:57:44;95812.00;;;13.65;77.51
38054;BME280;23859;50.672;7.164;2023-03-12T15:00:27;95808.19;;;13.86;75.83
38054;BME280;23859;50.672;7.164;2023-03-12T15:02:55;95810.81;;;13.91;75.32
38054;BME280;23859;50.672;7.164;2023-03-12T15:05:23;95811.84;;;13.95;74.93
38054;BME280;23859;50.672;7.164;2023-03-12T15:07:51;95809.13;;;14.05;74.82
38054;BME280;23859;50.672;7.164;2023-03-12T15:10:22;95809.25;;;13.85;76.04
38054;BME280;23859;50.672;7.164;2023-03-12T15:12:50;95804.50;;;13.77;76.70
38054;BME280;23859;50.672;7.164;2023-03-12T15:17:56;95776.69;;;13.30;76.79
38054;BME280;23859;50.672;7.164;2023-03-12T15:20:24;95831.25;;;13.57;74.64
38054;BME280;23859;50.672;7.164;2023-03-12T15:22:51;95829.41;;;13.53;75.26
38054;BME280;23859;50.672;7.164;2023-03-12T15:25:23;95827.03;;;13.41;74.26
38054;BME280;23859;50.672;7.164;2023-03-12T15:28:04;95819.84;;;13.32;74.75